Terminal Aerodrome Forecast
Issued by NWS Cleveland, OH

Home | Current Version | Previous Version | Text Only | Print | Product List | Glossary On
Versions: 1 2 3 4 5 6 7 8 9 10 11 12 13 14 15 16 17
128
FTUS41 KCLE 262331
TAFERI
TAF
KERI 262331Z 2700/2724 25010G20KT P6SM SCT045 BKN200
     FM270200 22010G18KT P6SM VCSH BKN050
     FM270800 20010KT P6SM -SHRA VCTS SCT025CB OVC080
      TEMPO 2708/2712 2SM -TSRA BKN015 OVC025CB
     FM271200 23010G20KT P6SM SCT025 OVC050
     FM271500 27012KT P6SM SCT025 BKN035=

USA.gov is the U.S. government's official web portal to all federal, state and local government web resources and services.